Long Creek, South Carolina
Current Conditions -  °F | °C
As of 2:15 AM on Saturday 29 Nov 2014 (Local Time) from KTOC Reporting Station
Clear Clear  
Wind Chill: 29°   Ceiling: Unl
Heat Index: 29°   Visibility: 10mi
Dew Point: 25°   Wind: 0mph
Humidity: 85%   Direction: NA
Pressure: 30.26"   Gusts: NA
Location:  34.71°N, 83.14°W
Report Text: KTOC 290715Z AUTO 00000KT 10SM CLR M01/M04 A3026 RMK AO2 T10151038
Loading
Personal Weather Stations






























Interactive Weather Map New forecast layout! Learn more

10-Day Weather Forecast

Advertisements
Track Severe Weather on mobile